sensor_id;sensor_type;location;lat;lon;timestamp;P1;durP1;ratioP1;P2;durP2;ratioP2
14611;SDS011;7392;52.078;11.650;2024-02-16T00:01:44;7.13;;;6.40;;
14611;SDS011;7392;52.078;11.650;2024-02-16T00:04:12;10.63;;;6.07;;
14611;SDS011;7392;52.078;11.650;2024-02-16T00:06:40;6.67;;;6.00;;
14611;SDS011;7392;52.078;11.650;2024-02-16T00:09:10;7.00;;;5.73;;
14611;SDS011;7392;52.078;11.650;2024-02-16T00:11:40;5.67;;;5.10;;
14611;SDS011;7392;52.078;11.650;2024-02-16T00:14:08;5.10;;;4.60;;
14611;SDS011;7392;52.078;11.650;2024-02-16T00:16:36;4.83;;;4.43;;
14611;SDS011;7392;52.078;11.650;2024-02-16T00:19:05;5.40;;;4.87;;
14611;SDS011;7392;52.078;11.650;2024-02-16T00:21:33;5.60;;;5.00;;
14611;SDS011;7392;52.078;11.650;2024-02-16T00:24:01;6.43;;;5.53;;
14611;SDS011;7392;52.078;11.650;2024-02-16T00:26:30;7.60;;;6.03;;
14611;SDS011;7392;52.078;11.650;2024-02-16T00:28:59;7.00;;;6.03;;
14611;SDS011;7392;52.078;11.650;2024-02-16T00:31:27;9.13;;;6.70;;
14611;SDS011;7392;52.078;11.650;2024-02-16T00:33:55;7.47;;;5.97;;
14611;SDS011;7392;52.078;11.650;2024-02-16T00:36:23;9.10;;;6.23;;
14611;SDS011;7392;52.078;11.650;2024-02-16T00:38:51;6.60;;;5.90;;
14611;SDS011;7392;52.078;11.650;2024-02-16T00:41:19;8.37;;;6.13;;
14611;SDS011;7392;52.078;11.650;2024-02-16T00:43:47;9.40;;;6.97;;
14611;SDS011;7392;52.078;11.650;2024-02-16T00:46:18;8.17;;;6.03;;
14611;SDS011;7392;52.078;11.650;2024-02-16T00:48:45;7.93;;;6.40;;
14611;SDS011;7392;52.078;11.650;2024-02-16T00:51:14;9.10;;;6.73;;
14611;SDS011;7392;52.078;11.650;2024-02-16T00:53:42;9.93;;;6.37;;
14611;SDS011;7392;52.078;11.650;2024-02-16T00:56:10;7.40;;;6.40;;
14611;SDS011;7392;52.078;11.650;2024-02-16T00:58:39;8.73;;;6.13;;
14611;SDS011;7392;52.078;11.650;2024-02-16T01:01:09;6.63;;;5.80;;
14611;SDS011;7392;52.078;11.650;2024-02-16T01:03:40;7.93;;;5.97;;
14611;SDS011;7392;52.078;11.650;2024-02-16T01:06:08;9.20;;;6.73;;
14611;SDS011;7392;52.078;11.650;2024-02-16T01:08:37;7.17;;;6.47;;
14611;SDS011;7392;52.078;11.650;2024-02-16T01:11:05;8.07;;;6.67;;
14611;SDS011;7392;52.078;11.650;2024-02-16T01:13:34;8.17;;;6.17;;
14611;SDS011;7392;52.078;11.650;2024-02-16T01:16:02;8.33;;;6.20;;
14611;SDS011;7392;52.078;11.650;2024-02-16T01:18:30;7.40;;;5.57;;
14611;SDS011;7392;52.078;11.650;2024-02-16T01:21:01;6.83;;;5.53;;
14611;SDS011;7392;52.078;11.650;2024-02-16T01:23:29;6.20;;;5.60;;
14611;SDS011;7392;52.078;11.650;2024-02-16T01:25:58;5.77;;;4.80;;
14611;SDS011;7392;52.078;11.650;2024-02-16T01:28:25;6.73;;;5.37;;
14611;SDS011;7392;52.078;11.650;2024-02-16T01:30:53;7.27;;;5.53;;
14611;SDS011;7392;52.078;11.650;2024-02-16T01:33:22;9.47;;;5.80;;
14611;SDS011;7392;52.078;11.650;2024-02-16T01:35:51;7.57;;;5.53;;
14611;SDS011;7392;52.078;11.650;2024-02-16T01:38:20;6.27;;;5.67;;
14611;SDS011;7392;52.078;11.650;2024-02-16T01:40:49;6.10;;;5.50;;
14611;SDS011;7392;52.078;11.650;2024-02-16T01:43:18;8.70;;;6.13;;
14611;SDS011;7392;52.078;11.650;2024-02-16T01:45:46;7.13;;;5.73;;
14611;SDS011;7392;52.078;11.650;2024-02-16T01:48:14;9.63;;;5.47;;
14611;SDS011;7392;52.078;11.650;2024-02-16T01:50:43;6.77;;;5.37;;
14611;SDS011;7392;52.078;11.650;2024-02-16T01:53:11;7.27;;;5.63;;
14611;SDS011;7392;52.078;11.650;2024-02-16T01:55:41;6.70;;;6.00;;
14611;SDS011;7392;52.078;11.650;2024-02-16T01:58:10;7.43;;;5.90;;
14611;SDS011;7392;52.078;11.650;2024-02-16T02:00:39;6.33;;;4.97;;
14611;SDS011;7392;52.078;11.650;2024-02-16T02:03:07;10.70;;;6.23;;
14611;SDS011;7392;52.078;11.650;2024-02-16T02:05:43;10.53;;;6.30;;
14611;SDS011;7392;52.078;11.650;2024-02-16T02:08:12;7.33;;;5.77;;
14611;SDS011;7392;52.078;11.650;2024-02-16T02:10:42;8.87;;;5.87;;
14611;SDS011;7392;52.078;11.650;2024-02-16T02:13:11;8.23;;;5.60;;
14611;SDS011;7392;52.078;11.650;2024-02-16T02:15:39;5.77;;;4.73;;
14611;SDS011;7392;52.078;11.650;2024-02-16T02:18:07;9.80;;;5.60;;
14611;SDS011;7392;52.078;11.650;2024-02-16T02:20:35;8.17;;;6.10;;
14611;SDS011;7392;52.078;11.650;2024-02-16T02:23:04;8.53;;;5.97;;
14611;SDS011;7392;52.078;11.650;2024-02-16T02:25:32;10.33;;;6.07;;
14611;SDS011;7392;52.078;11.650;2024-02-16T02:28:01;11.23;;;6.23;;
14611;SDS011;7392;52.078;11.650;2024-02-16T02:30:29;6.63;;;5.53;;
14611;SDS011;7392;52.078;11.650;2024-02-16T02:32:57;8.77;;;5.33;;
14611;SDS011;7392;52.078;11.650;2024-02-16T02:35:26;7.27;;;5.93;;
14611;SDS011;7392;52.078;11.650;2024-02-16T02:37:54;10.20;;;5.47;;
14611;SDS011;7392;52.078;11.650;2024-02-16T02:40:23;6.20;;;5.60;;
14611;SDS011;7392;52.078;11.650;2024-02-16T02:42:52;5.87;;;5.20;;
14611;SDS011;7392;52.078;11.650;2024-02-16T02:45:20;8.43;;;6.03;;
14611;SDS011;7392;52.078;11.650;2024-02-16T02:47:49;9.10;;;5.57;;
14611;SDS011;7392;52.078;11.650;2024-02-16T02:50:19;9.70;;;5.93;;
14611;SDS011;7392;52.078;11.650;2024-02-16T02:52:47;8.10;;;6.07;;
14611;SDS011;7392;52.078;11.650;2024-02-16T02:55:15;5.90;;;4.83;;
14611;SDS011;7392;52.078;11.650;2024-02-16T02:57:45;6.77;;;4.73;;
14611;SDS011;7392;52.078;11.650;2024-02-16T03:00:16;7.67;;;5.60;;
14611;SDS011;7392;52.078;11.650;2024-02-16T03:02:44;7.63;;;5.60;;
14611;SDS011;7392;52.078;11.650;2024-02-16T03:05:12;7.60;;;5.23;;
14611;SDS011;7392;52.078;11.650;2024-02-16T03:07:40;7.17;;;5.37;;
14611;SDS011;7392;52.078;11.650;2024-02-16T03:10:08;6.77;;;5.50;;
14611;SDS011;7392;52.078;11.650;2024-02-16T03:12:37;7.67;;;5.20;;
14611;SDS011;7392;52.078;11.650;2024-02-16T03:15:07;8.20;;;5.43;;
14611;SDS011;7392;52.078;11.650;2024-02-16T03:17:36;8.70;;;5.30;;
14611;SDS011;7392;52.078;11.650;2024-02-16T03:20:04;7.70;;;5.93;;
14611;SDS011;7392;52.078;11.650;2024-02-16T03:22:34;6.87;;;5.13;;
14611;SDS011;7392;52.078;11.650;2024-02-16T03:25:03;9.17;;;5.70;;
14611;SDS011;7392;52.078;11.650;2024-02-16T03:27:31;8.63;;;5.80;;
14611;SDS011;7392;52.078;11.650;2024-02-16T03:29:59;13.43;;;6.10;;
14611;SDS011;7392;52.078;11.650;2024-02-16T03:32:31;7.43;;;5.57;;
14611;SDS011;7392;52.078;11.650;2024-02-16T03:34:59;8.47;;;5.10;;
14611;SDS011;7392;52.078;11.650;2024-02-16T03:37:27;8.10;;;5.17;;
14611;SDS011;7392;52.078;11.650;2024-02-16T03:39:56;6.30;;;4.97;;
14611;SDS011;7392;52.078;11.650;2024-02-16T03:42:24;6.67;;;4.97;;
14611;SDS011;7392;52.078;11.650;2024-02-16T03:44:52;5.93;;;5.10;;
14611;SDS011;7392;52.078;11.650;2024-02-16T03:47:20;5.63;;;5.00;;
14611;SDS011;7392;52.078;11.650;2024-02-16T03:49:50;5.77;;;4.80;;
14611;SDS011;7392;52.078;11.650;2024-02-16T03:52:19;6.30;;;4.83;;
14611;SDS011;7392;52.078;11.650;2024-02-16T03:54:47;7.40;;;5.10;;
14611;SDS011;7392;52.078;11.650;2024-02-16T03:57:15;10.03;;;5.47;;
14611;SDS011;7392;52.078;11.650;2024-02-16T03:59:43;5.97;;;4.93;;
14611;SDS011;7392;52.078;11.650;2024-02-16T04:02:12;9.83;;;4.83;;
14611;SDS011;7392;52.078;11.650;2024-02-16T04:04:40;7.43;;;5.50;;
14611;SDS011;7392;52.078;11.650;2024-02-16T04:07:10;7.23;;;5.53;;
14611;SDS011;7392;52.078;11.650;2024-02-16T04:09:38;7.63;;;5.83;;
14611;SDS011;7392;52.078;11.650;2024-02-16T04:12:06;6.80;;;5.33;;
14611;SDS011;7392;52.078;11.650;2024-02-16T04:14:34;6.33;;;4.60;;
14611;SDS011;7392;52.078;11.650;2024-02-16T04:17:02;9.13;;;5.20;;
14611;SDS011;7392;52.078;11.650;2024-02-16T04:19:31;8.30;;;5.37;;
14611;SDS011;7392;52.078;11.650;2024-02-16T04:21:59;6.70;;;5.00;;
14611;SDS011;7392;52.078;11.650;2024-02-16T04:24:28;7.80;;;4.80;;
14611;SDS011;7392;52.078;11.650;2024-02-16T04:26:57;7.87;;;5.13;;
14611;SDS011;7392;52.078;11.650;2024-02-16T04:29:25;5.87;;;5.27;;
14611;SDS011;7392;52.078;11.650;2024-02-16T04:31:53;6.00;;;4.43;;
14611;SDS011;7392;52.078;11.650;2024-02-16T04:34:21;7.23;;;5.53;;
14611;SDS011;7392;52.078;11.650;2024-02-16T04:36:49;7.50;;;5.20;;
14611;SDS011;7392;52.078;11.650;2024-02-16T04:39:17;7.77;;;5.07;;
14611;SDS011;7392;52.078;11.650;2024-02-16T04:41:47;5.73;;;5.23;;
14611;SDS011;7392;52.078;11.650;2024-02-16T04:44:15;6.93;;;4.93;;
14611;SDS011;7392;52.078;11.650;2024-02-16T04:46:43;6.87;;;4.77;;
14611;SDS011;7392;52.078;11.650;2024-02-16T04:49:12;6.27;;;4.73;;
14611;SDS011;7392;52.078;11.650;2024-02-16T04:51:40;5.27;;;4.47;;
14611;SDS011;7392;52.078;11.650;2024-02-16T04:54:08;5.60;;;4.70;;
14611;SDS011;7392;52.078;11.650;2024-02-16T04:56:36;6.93;;;4.80;;
14611;SDS011;7392;52.078;11.650;2024-02-16T04:59:07;6.93;;;5.03;;
14611;SDS011;7392;52.078;11.650;2024-02-16T05:01:35;8.30;;;5.50;;
14611;SDS011;7392;52.078;11.650;2024-02-16T05:04:03;6.83;;;5.70;;
14611;SDS011;7392;52.078;11.650;2024-02-16T05:06:31;6.33;;;4.77;;
14611;SDS011;7392;52.078;11.650;2024-02-16T05:08:59;5.67;;;5.07;;
14611;SDS011;7392;52.078;11.650;2024-02-16T05:11:27;6.40;;;4.80;;
14611;SDS011;7392;52.078;11.650;2024-02-16T05:13:56;8.13;;;4.93;;
14611;SDS011;7392;52.078;11.650;2024-02-16T05:16:26;6.20;;;5.43;;
14611;SDS011;7392;52.078;11.650;2024-02-16T05:18:55;7.07;;;5.47;;
14611;SDS011;7392;52.078;11.650;2024-02-16T05:21:24;6.60;;;4.73;;
14611;SDS011;7392;52.078;11.650;2024-02-16T05:23:51;5.93;;;4.90;;
14611;SDS011;7392;52.078;11.650;2024-02-16T05:26:21;7.43;;;5.10;;
14611;SDS011;7392;52.078;11.650;2024-02-16T05:28:48;7.73;;;4.67;;
14611;SDS011;7392;52.078;11.650;2024-02-16T05:31:17;6.17;;;5.57;;
14611;SDS011;7392;52.078;11.650;2024-02-16T05:33:47;5.00;;;4.50;;
14611;SDS011;7392;52.078;11.650;2024-02-16T05:36:17;8.00;;;4.97;;
14611;SDS011;7392;52.078;11.650;2024-02-16T05:38:47;7.10;;;5.13;;
14611;SDS011;7392;52.078;11.650;2024-02-16T05:41:16;8.00;;;5.20;;
14611;SDS011;7392;52.078;11.650;2024-02-16T05:43:44;5.73;;;4.60;;
14611;SDS011;7392;52.078;11.650;2024-02-16T05:46:13;5.73;;;4.53;;
14611;SDS011;7392;52.078;11.650;2024-02-16T05:48:41;5.20;;;4.70;;
14611;SDS011;7392;52.078;11.650;2024-02-16T05:51:11;7.33;;;4.53;;
14611;SDS011;7392;52.078;11.650;2024-02-16T05:53:40;5.37;;;4.83;;
14611;SDS011;7392;52.078;11.650;2024-02-16T05:56:08;5.73;;;4.50;;
14611;SDS011;7392;52.078;11.650;2024-02-16T05:58:36;4.43;;;4.00;;
14611;SDS011;7392;52.078;11.650;2024-02-16T06:01:04;5.70;;;4.33;;
14611;SDS011;7392;52.078;11.650;2024-02-16T06:03:32;4.60;;;3.93;;
14611;SDS011;7392;52.078;11.650;2024-02-16T06:06:01;4.10;;;3.43;;
14611;SDS011;7392;52.078;11.650;2024-02-16T06:08:31;4.17;;;2.90;;
14611;SDS011;7392;52.078;11.650;2024-02-16T06:10:59;3.10;;;2.80;;
14611;SDS011;7392;52.078;11.650;2024-02-16T06:13:28;3.27;;;2.97;;
14611;SDS011;7392;52.078;11.650;2024-02-16T06:15:56;4.43;;;3.70;;
14611;SDS011;7392;52.078;11.650;2024-02-16T06:18:24;5.30;;;4.37;;
14611;SDS011;7392;52.078;11.650;2024-02-16T06:20:56;5.30;;;4.00;;
14611;SDS011;7392;52.078;11.650;2024-02-16T06:23:24;4.43;;;4.03;;
14611;SDS011;7392;52.078;11.650;2024-02-16T06:25:53;6.37;;;4.73;;
14611;SDS011;7392;52.078;11.650;2024-02-16T06:28:21;5.27;;;4.50;;
14611;SDS011;7392;52.078;11.650;2024-02-16T06:30:49;6.07;;;4.93;;
14611;SDS011;7392;52.078;11.650;2024-02-16T06:33:17;6.97;;;4.97;;
14611;SDS011;7392;52.078;11.650;2024-02-16T06:35:46;6.23;;;4.83;;
14611;SDS011;7392;52.078;11.650;2024-02-16T06:38:15;5.00;;;4.40;;
14611;SDS011;7392;52.078;11.650;2024-02-16T06:40:43;5.10;;;4.40;;
14611;SDS011;7392;52.078;11.650;2024-02-16T06:43:13;6.77;;;5.03;;
14611;SDS011;7392;52.078;11.650;2024-02-16T06:45:41;5.93;;;4.57;;
14611;SDS011;7392;52.078;11.650;2024-02-16T06:48:08;6.17;;;5.10;;
14611;SDS011;7392;52.078;11.650;2024-02-16T06:50:37;10.00;;;5.10;;
14611;SDS011;7392;52.078;11.650;2024-02-16T06:53:04;8.57;;;4.97;;
14611;SDS011;7392;52.078;11.650;2024-02-16T06:55:32;6.80;;;4.50;;
14611;SDS011;7392;52.078;11.650;2024-02-16T06:58:00;5.80;;;4.83;;
14611;SDS011;7392;52.078;11.650;2024-02-16T07:00:30;6.10;;;4.27;;
14611;SDS011;7392;52.078;11.650;2024-02-16T07:02:59;8.17;;;4.23;;
14611;SDS011;7392;52.078;11.650;2024-02-16T07:05:27;6.27;;;4.30;;
14611;SDS011;7392;52.078;11.650;2024-02-16T07:08:01;5.47;;;4.20;;
14611;SDS011;7392;52.078;11.650;2024-02-16T07:10:28;5.03;;;4.23;;
14611;SDS011;7392;52.078;11.650;2024-02-16T07:12:57;5.57;;;4.20;;
14611;SDS011;7392;52.078;11.650;2024-02-16T07:15:24;6.00;;;4.07;;
14611;SDS011;7392;52.078;11.650;2024-02-16T07:17:54;8.77;;;4.77;;
14611;SDS011;7392;52.078;11.650;2024-02-16T07:20:23;5.63;;;4.10;;
14611;SDS011;7392;52.078;11.650;2024-02-16T07:22:51;8.30;;;4.13;;
14611;SDS011;7392;52.078;11.650;2024-02-16T07:25:19;6.37;;;4.40;;
14611;SDS011;7392;52.078;11.650;2024-02-16T07:27:47;4.43;;;4.00;;
14611;SDS011;7392;52.078;11.650;2024-02-16T07:30:15;5.40;;;3.83;;
14611;SDS011;7392;52.078;11.650;2024-02-16T07:32:56;5.17;;;3.67;;
14611;SDS011;7392;52.078;11.650;2024-02-16T07:35:24;5.67;;;4.00;;
14611;SDS011;7392;52.078;11.650;2024-02-16T07:37:52;6.93;;;4.47;;
14611;SDS011;7392;52.078;11.650;2024-02-16T07:40:20;4.57;;;4.17;;
14611;SDS011;7392;52.078;11.650;2024-02-16T07:42:48;4.83;;;3.73;;
14611;SDS011;7392;52.078;11.650;2024-02-16T07:45:16;5.93;;;4.00;;
14611;SDS011;7392;52.078;11.650;2024-02-16T07:47:47;5.43;;;4.53;;
14611;SDS011;7392;52.078;11.650;2024-02-16T07:50:19;6.70;;;4.40;;
14611;SDS011;7392;52.078;11.650;2024-02-16T07:52:47;5.70;;;4.43;;
14611;SDS011;7392;52.078;11.650;2024-02-16T07:55:16;7.83;;;4.57;;
14611;SDS011;7392;52.078;11.650;2024-02-16T07:57:45;5.77;;;4.30;;
14611;SDS011;7392;52.078;11.650;2024-02-16T08:00:13;6.13;;;4.33;;
14611;SDS011;7392;52.078;11.650;2024-02-16T08:02:42;7.53;;;4.10;;
14611;SDS011;7392;52.078;11.650;2024-02-16T08:05:10;4.87;;;3.80;;
14611;SDS011;7392;52.078;11.650;2024-02-16T08:07:41;5.73;;;3.80;;
14611;SDS011;7392;52.078;11.650;2024-02-16T08:10:10;5.90;;;3.87;;
14611;SDS011;7392;52.078;11.650;2024-02-16T08:12:39;6.33;;;3.80;;
14611;SDS011;7392;52.078;11.650;2024-02-16T08:15:08;4.80;;;3.60;;
14611;SDS011;7392;52.078;11.650;2024-02-16T08:17:37;4.83;;;4.03;;
14611;SDS011;7392;52.078;11.650;2024-02-16T08:20:06;7.87;;;4.07;;
14611;SDS011;7392;52.078;11.650;2024-02-16T08:22:38;4.53;;;3.50;;
14611;SDS011;7392;52.078;11.650;2024-02-16T08:25:07;5.27;;;3.50;;
14611;SDS011;7392;52.078;11.650;2024-02-16T08:27:36;7.30;;;3.47;;
14611;SDS011;7392;52.078;11.650;2024-02-16T08:30:05;5.00;;;3.40;;
14611;SDS011;7392;52.078;11.650;2024-02-16T08:32:36;5.17;;;3.10;;
14611;SDS011;7392;52.078;11.650;2024-02-16T08:35:04;4.10;;;3.13;;
14611;SDS011;7392;52.078;11.650;2024-02-16T08:37:33;7.73;;;3.00;;
14611;SDS011;7392;52.078;11.650;2024-02-16T08:40:01;3.53;;;2.80;;
14611;SDS011;7392;52.078;11.650;2024-02-16T08:42:31;3.97;;;2.77;;
14611;SDS011;7392;52.078;11.650;2024-02-16T08:44:59;3.80;;;2.70;;
14611;SDS011;7392;52.078;11.650;2024-02-16T08:47:27;4.70;;;2.60;;
14611;SDS011;7392;52.078;11.650;2024-02-16T08:49:55;4.97;;;2.67;;
14611;SDS011;7392;52.078;11.650;2024-02-16T08:52:23;4.20;;;2.10;;
14611;SDS011;7392;52.078;11.650;2024-02-16T08:54:51;5.03;;;2.63;;
14611;SDS011;7392;52.078;11.650;2024-02-16T08:57:19;3.17;;;2.50;;
14611;SDS011;7392;52.078;11.650;2024-02-16T08:59:48;4.33;;;2.60;;
14611;SDS011;7392;52.078;11.650;2024-02-16T09:02:16;3.40;;;2.77;;
14611;SDS011;7392;52.078;11.650;2024-02-16T09:04:45;3.83;;;2.70;;
14611;SDS011;7392;52.078;11.650;2024-02-16T09:07:13;4.07;;;2.80;;
14611;SDS011;7392;52.078;11.650;2024-02-16T09:09:41;4.27;;;2.70;;
14611;SDS011;7392;52.078;11.650;2024-02-16T09:12:10;4.20;;;2.60;;
14611;SDS011;7392;52.078;11.650;2024-02-16T09:14:38;4.13;;;2.73;;
14611;SDS011;7392;52.078;11.650;2024-02-16T09:17:07;4.00;;;2.73;;
14611;SDS011;7392;52.078;11.650;2024-02-16T09:19:35;5.60;;;2.97;;
14611;SDS011;7392;52.078;11.650;2024-02-16T09:22:03;4.30;;;3.27;;
14611;SDS011;7392;52.078;11.650;2024-02-16T09:24:32;7.03;;;3.50;;
14611;SDS011;7392;52.078;11.650;2024-02-16T09:27:01;4.60;;;2.80;;
14611;SDS011;7392;52.078;11.650;2024-02-16T09:29:30;4.27;;;3.20;;
14611;SDS011;7392;52.078;11.650;2024-02-16T09:31:59;6.53;;;4.30;;
14611;SDS011;7392;52.078;11.650;2024-02-16T09:34:29;4.27;;;3.67;;
14611;SDS011;7392;52.078;11.650;2024-02-16T09:36:57;4.70;;;3.07;;
14611;SDS011;7392;52.078;11.650;2024-02-16T09:39:25;4.67;;;3.20;;
14611;SDS011;7392;52.078;11.650;2024-02-16T09:41:54;4.13;;;2.80;;
14611;SDS011;7392;52.078;11.650;2024-02-16T09:44:23;6.23;;;2.70;;
14611;SDS011;7392;52.078;11.650;2024-02-16T09:46:52;5.77;;;2.97;;
14611;SDS011;7392;52.078;11.650;2024-02-16T09:49:21;3.27;;;2.67;;
14611;SDS011;7392;52.078;11.650;2024-02-16T09:52:03;5.13;;;3.07;;
14611;SDS011;7392;52.078;11.650;2024-02-16T09:54:32;4.93;;;3.30;;
14611;SDS011;7392;52.078;11.650;2024-02-16T09:57:01;3.27;;;2.70;;
14611;SDS011;7392;52.078;11.650;2024-02-16T09:59:31;4.43;;;2.70;;
14611;SDS011;7392;52.078;11.650;2024-02-16T10:01:59;6.40;;;3.10;;
14611;SDS011;7392;52.078;11.650;2024-02-16T10:04:27;4.53;;;3.03;;
14611;SDS011;7392;52.078;11.650;2024-02-16T10:07:03;4.27;;;2.47;;
14611;SDS011;7392;52.078;11.650;2024-02-16T10:09:38;4.77;;;2.93;;
14611;SDS011;7392;52.078;11.650;2024-02-16T10:12:08;5.77;;;2.83;;
14611;SDS011;7392;52.078;11.650;2024-02-16T10:14:37;6.53;;;2.77;;
14611;SDS011;7392;52.078;11.650;2024-02-16T10:17:08;6.53;;;2.70;;
14611;SDS011;7392;52.078;11.650;2024-02-16T10:19:36;5.00;;;2.80;;
14611;SDS011;7392;52.078;11.650;2024-02-16T10:22:10;3.57;;;2.50;;
14611;SDS011;7392;52.078;11.650;2024-02-16T10:24:39;3.40;;;2.43;;
14611;SDS011;7392;52.078;11.650;2024-02-16T10:27:13;6.90;;;3.10;;
14611;SDS011;7392;52.078;11.650;2024-02-16T10:29:43;3.23;;;2.43;;
14611;SDS011;7392;52.078;11.650;2024-02-16T10:32:12;2.73;;;2.30;;
14611;SDS011;7392;52.078;11.650;2024-02-16T10:34:40;6.20;;;2.30;;
14611;SDS011;7392;52.078;11.650;2024-02-16T10:37:11;4.67;;;2.43;;
14611;SDS011;7392;52.078;11.650;2024-02-16T10:39:40;2.97;;;2.20;;
14611;SDS011;7392;52.078;11.650;2024-02-16T10:42:08;5.03;;;2.40;;
14611;SDS011;7392;52.078;11.650;2024-02-16T10:44:39;4.77;;;2.60;;
14611;SDS011;7392;52.078;11.650;2024-02-16T10:47:09;3.37;;;2.27;;
14611;SDS011;7392;52.078;11.650;2024-02-16T10:49:37;3.17;;;1.90;;
14611;SDS011;7392;52.078;11.650;2024-02-16T10:52:05;4.40;;;2.17;;
14611;SDS011;7392;52.078;11.650;2024-02-16T10:54:36;5.17;;;2.27;;
14611;SDS011;7392;52.078;11.650;2024-02-16T10:57:07;3.47;;;2.00;;
14611;SDS011;7392;52.078;11.650;2024-02-16T10:59:41;4.83;;;2.23;;
14611;SDS011;7392;52.078;11.650;2024-02-16T11:02:10;4.17;;;2.20;;
14611;SDS011;7392;52.078;11.650;2024-02-16T11:04:39;3.00;;;2.10;;
14611;SDS011;7392;52.078;11.650;2024-02-16T11:07:11;5.50;;;2.33;;
14611;SDS011;7392;52.078;11.650;2024-02-16T11:09:41;4.10;;;2.50;;
14611;SDS011;7392;52.078;11.650;2024-02-16T11:12:11;3.73;;;2.13;;
14611;SDS011;7392;52.078;11.650;2024-02-16T11:14:42;4.10;;;2.37;;
14611;SDS011;7392;52.078;11.650;2024-02-16T11:17:12;3.63;;;2.67;;
14611;SDS011;7392;52.078;11.650;2024-02-16T11:19:41;3.00;;;2.30;;
14611;SDS011;7392;52.078;11.650;2024-02-16T11:22:10;3.50;;;2.33;;
14611;SDS011;7392;52.078;11.650;2024-02-16T11:24:43;4.03;;;2.20;;
14611;SDS011;7392;52.078;11.650;2024-02-16T11:27:12;3.83;;;2.40;;
14611;SDS011;7392;52.078;11.650;2024-02-16T11:29:42;3.67;;;2.23;;
14611;SDS011;7392;52.078;11.650;2024-02-16T11:32:10;3.97;;;2.50;;
14611;SDS011;7392;52.078;11.650;2024-02-16T11:34:38;2.53;;;2.30;;
14611;SDS011;7392;52.078;11.650;2024-02-16T11:37:06;2.93;;;2.10;;
14611;SDS011;7392;52.078;11.650;2024-02-16T11:39:34;6.23;;;2.53;;
14611;SDS011;7392;52.078;11.650;2024-02-16T11:42:06;5.40;;;2.20;;
14611;SDS011;7392;52.078;11.650;2024-02-16T11:44:37;3.53;;;2.20;;
14611;SDS011;7392;52.078;11.650;2024-02-16T11:47:08;4.83;;;2.20;;
14611;SDS011;7392;52.078;11.650;2024-02-16T11:49:39;8.20;;;2.20;;
14611;SDS011;7392;52.078;11.650;2024-02-16T11:52:07;4.30;;;2.60;;
14611;SDS011;7392;52.078;11.650;2024-02-16T11:54:35;6.63;;;2.30;;
14611;SDS011;7392;52.078;11.650;2024-02-16T11:57:03;5.90;;;2.30;;
14611;SDS011;7392;52.078;11.650;2024-02-16T11:59:33;2.53;;;1.90;;
14611;SDS011;7392;52.078;11.650;2024-02-16T12:02:01;2.00;;;1.50;;
14611;SDS011;7392;52.078;11.650;2024-02-16T12:04:29;3.00;;;1.80;;
14611;SDS011;7392;52.078;11.650;2024-02-16T12:07:02;2.60;;;1.93;;
14611;SDS011;7392;52.078;11.650;2024-02-16T12:09:31;3.03;;;2.07;;
14611;SDS011;7392;52.078;11.650;2024-02-16T12:12:02;2.90;;;2.10;;
14611;SDS011;7392;52.078;11.650;2024-02-16T12:14:34;2.77;;;2.00;;
14611;SDS011;7392;52.078;11.650;2024-02-16T12:17:04;2.13;;;1.73;;
14611;SDS011;7392;52.078;11.650;2024-02-16T12:19:34;3.53;;;2.00;;
14611;SDS011;7392;52.078;11.650;2024-02-16T12:22:02;3.67;;;2.30;;
14611;SDS011;7392;52.078;11.650;2024-02-16T12:24:31;3.60;;;2.03;;
14611;SDS011;7392;52.078;11.650;2024-02-16T12:26:58;4.07;;;2.40;;
14611;SDS011;7392;52.078;11.650;2024-02-16T12:29:26;3.40;;;1.80;;
14611;SDS011;7392;52.078;11.650;2024-02-16T12:31:56;3.33;;;2.13;;
14611;SDS011;7392;52.078;11.650;2024-02-16T12:34:24;3.83;;;2.20;;
14611;SDS011;7392;52.078;11.650;2024-02-16T12:36:53;3.80;;;2.53;;
14611;SDS011;7392;52.078;11.650;2024-02-16T12:39:21;4.93;;;2.10;;
14611;SDS011;7392;52.078;11.650;2024-02-16T12:41:48;3.17;;;2.07;;
14611;SDS011;7392;52.078;11.650;2024-02-16T12:44:16;2.67;;;2.13;;
14611;SDS011;7392;52.078;11.650;2024-02-16T12:46:44;4.47;;;2.17;;
14611;SDS011;7392;52.078;11.650;2024-02-16T12:49:14;3.67;;;2.20;;
14611;SDS011;7392;52.078;11.650;2024-02-16T12:51:42;4.10;;;2.23;;
14611;SDS011;7392;52.078;11.650;2024-02-16T12:54:11;2.77;;;2.10;;
14611;SDS011;7392;52.078;11.650;2024-02-16T12:56:41;3.10;;;2.10;;
14611;SDS011;7392;52.078;11.650;2024-02-16T12:59:11;2.63;;;1.80;;
14611;SDS011;7392;52.078;11.650;2024-02-16T13:01:39;2.90;;;2.00;;
14611;SDS011;7392;52.078;11.650;2024-02-16T13:04:08;4.60;;;2.40;;
14611;SDS011;7392;52.078;11.650;2024-02-16T13:06:37;4.00;;;2.10;;
14611;SDS011;7392;52.078;11.650;2024-02-16T13:09:05;3.77;;;2.20;;
14611;SDS011;7392;52.078;11.650;2024-02-16T13:11:35;4.23;;;2.00;;
14611;SDS011;7392;52.078;11.650;2024-02-16T13:14:03;4.20;;;2.17;;
14611;SDS011;7392;52.078;11.650;2024-02-16T13:16:31;2.53;;;1.93;;
14611;SDS011;7392;52.078;11.650;2024-02-16T13:18:59;4.03;;;2.20;;
14611;SDS011;7392;52.078;11.650;2024-02-16T13:21:27;3.27;;;2.00;;
14611;SDS011;7392;52.078;11.650;2024-02-16T13:23:56;3.43;;;1.80;;
14611;SDS011;7392;52.078;11.650;2024-02-16T13:26:25;3.27;;;2.20;;
14611;SDS011;7392;52.078;11.650;2024-02-16T13:28:53;4.10;;;1.80;;
14611;SDS011;7392;52.078;11.650;2024-02-16T13:31:22;3.73;;;2.30;;
14611;SDS011;7392;52.078;11.650;2024-02-16T13:33:51;3.67;;;1.90;;
14611;SDS011;7392;52.078;11.650;2024-02-16T13:36:21;4.03;;;2.20;;
14611;SDS011;7392;52.078;11.650;2024-02-16T13:38:49;2.53;;;1.80;;
14611;SDS011;7392;52.078;11.650;2024-02-16T13:41:18;3.30;;;1.93;;
14611;SDS011;7392;52.078;11.650;2024-02-16T13:43:46;3.53;;;1.97;;
14611;SDS011;7392;52.078;11.650;2024-02-16T13:46:14;3.30;;;1.70;;
14611;SDS011;7392;52.078;11.650;2024-02-16T13:48:42;2.10;;;1.73;;
14611;SDS011;7392;52.078;11.650;2024-02-16T13:51:10;2.07;;;1.80;;
14611;SDS011;7392;52.078;11.650;2024-02-16T13:53:39;2.87;;;2.03;;
14611;SDS011;7392;52.078;11.650;2024-02-16T13:56:07;3.53;;;1.80;;
14611;SDS011;7392;52.078;11.650;2024-02-16T13:58:36;3.37;;;2.00;;
14611;SDS011;7392;52.078;11.650;2024-02-16T14:01:05;2.57;;;1.90;;
14611;SDS011;7392;52.078;11.650;2024-02-16T14:03:33;3.57;;;2.20;;
14611;SDS011;7392;52.078;11.650;2024-02-16T14:06:03;3.57;;;2.03;;
14611;SDS011;7392;52.078;11.650;2024-02-16T14:08:34;3.47;;;2.37;;
14611;SDS011;7392;52.078;11.650;2024-02-16T14:11:02;3.53;;;2.43;;
14611;SDS011;7392;52.078;11.650;2024-02-16T14:13:30;4.37;;;2.30;;
14611;SDS011;7392;52.078;11.650;2024-02-16T14:16:00;3.43;;;2.47;;
14611;SDS011;7392;52.078;11.650;2024-02-16T14:18:28;3.80;;;2.13;;
14611;SDS011;7392;52.078;11.650;2024-02-16T14:21:01;4.40;;;2.57;;
14611;SDS011;7392;52.078;11.650;2024-02-16T14:23:30;2.80;;;2.20;;
14611;SDS011;7392;52.078;11.650;2024-02-16T14:25:59;3.20;;;2.20;;
14611;SDS011;7392;52.078;11.650;2024-02-16T14:28:27;3.53;;;2.43;;
14611;SDS011;7392;52.078;11.650;2024-02-16T14:30:55;2.93;;;2.07;;
14611;SDS011;7392;52.078;11.650;2024-02-16T14:33:25;3.17;;;2.00;;
14611;SDS011;7392;52.078;11.650;2024-02-16T14:36:00;3.27;;;2.23;;
14611;SDS011;7392;52.078;11.650;2024-02-16T14:38:29;4.47;;;2.10;;
14611;SDS011;7392;52.078;11.650;2024-02-16T14:40:57;2.23;;;1.87;;
14611;SDS011;7392;52.078;11.650;2024-02-16T14:43:31;2.33;;;2.00;;
14611;SDS011;7392;52.078;11.650;2024-02-16T14:45:59;3.40;;;2.30;;
14611;SDS011;7392;52.078;11.650;2024-02-16T14:48:29;2.50;;;2.07;;
14611;SDS011;7392;52.078;11.650;2024-02-16T14:51:00;2.87;;;1.97;;
14611;SDS011;7392;52.078;11.650;2024-02-16T14:53:30;2.70;;;2.17;;
14611;SDS011;7392;52.078;11.650;2024-02-16T14:56:00;2.53;;;2.20;;
14611;SDS011;7392;52.078;11.650;2024-02-16T14:58:34;2.47;;;2.00;;